Chinese Camp, CA (95309)

1:33 AM PDT on September 02, 2014 (GMT -0700)
GREEN SPRINGS | Change Station
CLOSE
Current Station
Personal Weather Station
Location: Jamestown, CA
Elevation: 1105 ft
Nearby Weather Stations

Elev 1105 ft 37.83 °N, 120.50 °W | Updated 49 seconds ago

Clear
Clear
75.0 °F
Feels Like 77 °F
N
2.0
Wind Variable Wind from NNE

Today
High -- | Low -- °F
--% Chance of Precip.
Yesterday
High -- | Low -- °F
Precip. -- in
6:32 AM 7:29 PM
Waxing Crescent, 49% visible
Pressure 29.85 in
Visibility 10.0 miles
Clouds Few 3200 ft
Few 3900 ft
Heat Index 77 °F
Dew Point 47 °F
Humidity 37%
Rainfall -999.00 in
Snow Depth Not available.
UV 0 out of 12
Pollen 9.40 out of 12
Ozone Good
Flu Activity Not available.
METAR KO22 020815Z AUTO 06004KT 10SM FEW032 FEW039 17/05 A2985 RMK AO1

More Conditions Fewer Conditions

Pressure 29.85 in
Visibility 10.0 miles
Clouds Few 3200 ft
Few 3900 ft
Heat Index 77 °F
Dew Point 47 °F
Humidity 37%
Rainfall -999.00 in
Snow Depth Not available.
UV 0 out of 12
Pollen 9.40 out of 12
Ozone Good
Flu Activity Not available.
METAR KO22 020815Z AUTO 06004KT 10SM FEW032 FEW039 17/05 A2985 RMK AO1

More Conditions Fewer Conditions

10-Day Weather Forecast

Almanac

Astronomy

Sep. 02, 2014 Rise Set
Actual Time 6:32 AM PDT 7:29 PM PDT
Civil Twilight 6:05 AM PDT 7:56 PM PDT
Nautical Twilight 5:33 AM PDT 8:27 PM PDT
Astronomical Twilight 5:00 AM PDT 9:00 PM PDT
Moon 2:14 PM PDT No Moon Set
Length of Visible Light 13h 50m
Length of Day
12h 56m
Tomorrow will be 2m 21s shorter.
Waxing Crescent, 49% of the Moon is Illuminated
Today
Waxing Crescent
Sep 2
First Quarter
Sep 8
Full
Sep 15
Last Quarter
Sep 24
New

Today's Extremes

State Highs State Lows

Community

WunderPhotos

Upload Photos

1,749,587 photos uploaded!

WunderBlogs® & News

Nearby

Air Quality

  Air Quality AQ Index Pollutant
Yesterday Good
OZONE
Current Good
OZONE
Monday Unhealthy for Sensitive Groups
OZONE
Tuesday Moderate
OZONE
Wednesday Moderate
OZONE
Thursday Moderate
OZONE
Friday Good
OZONE
Saturday Good
OZONE

Snow Depth

Station Depth Elevation
Leavitt Lake 0 in 9400 ft
Leavitt Meadows 1 in 7200 ft
Blue Lakes 0 in 8000 ft
Forestdale Creek 0 in 8029 ft
Summit Meadow 0 in 9122 ft

Earthquake Activity

City Distance Mag. Time & Date
Yountville, California 111 miles 2.6 1:15 PM PDT
2014-09-01
Gilroy, California 82 miles 3.5 9:10 AM PDT
2014-09-01
Green Valley, California 97 miles 2.5 6:37 AM PDT
2014-08-31
Napa, California 106 miles 3.2 1:56 AM PDT
2014-08-31
Minimum magnitude displayed is 2.5.

Coastal Water Temperatures

Place Temperature
No Stations Reporting

Nearby Weather Stations